Archival Weather

Chicago O'Hare International

Chicago, Illinois (KORD)

Report from: Tuesday, December 6, 2022 6:51 AM CST
Current time: Saturday, February 4, 2023 9:39 PM CST

Current weather
Weather history
Weather forecast

Temperature3.9°C (39.0°F)
Wind chill0.4°C (32.8°F)
Dew point0.6°C (33.1°F)
Winds 8 kts (4.1 m/s, 9.2 mph) North-Northeast (20°)
Visibility10 mi. (16.1 km)
Clouds Ceiling: Broken clouds 4,500 ft. (1,372 m)
Overcast 11,000 ft. (3,353 m)
Altimeter29.98 in.Hg (1015 mB)
Relative humidity79 %
Density altitude-1,316 ft. (-401 m)
Sea-level pressure101.6 kPa (1016 mB, 29.99 in.Hg)
Remarks Automated weather observing station with precipitation discriminator
Flight conditions Visual Meteorological Conditions
Raw dataKORD 061251Z 02008KT 10SM BKN045 OVC110 04/01 A2998 RMK AO2 SLP157 T00390006
An unhandled exception has occurred. See browser dev tools for details. Reload 🗙